sensor_id;sensor_type;location;lat;lon;timestamp;pressure;altitude;pressure_sealevel;temperature;humidity
56038;BME280;41907;47.848;9.000;2024-01-07T00:00:39;95043.09;;;2.82;100.00
56038;BME280;41907;47.848;9.000;2024-01-07T00:03:04;95036.91;;;2.63;100.00
56038;BME280;41907;47.848;9.000;2024-01-07T00:05:29;95038.25;;;2.60;100.00
56038;BME280;41907;47.848;9.000;2024-01-07T00:07:55;95036.94;;;2.57;100.00
56038;BME280;41907;47.848;9.000;2024-01-07T00:10:20;95041.16;;;2.58;100.00
56038;BME280;41907;47.848;9.000;2024-01-07T00:12:45;95043.56;;;2.50;100.00
56038;BME280;41907;47.848;9.000;2024-01-07T00:15:11;95037.19;;;2.61;100.00
56038;BME280;41907;47.848;9.000;2024-01-07T00:17:36;95038.75;;;2.62;100.00
56038;BME280;41907;47.848;9.000;2024-01-07T00:20:01;95039.84;;;2.56;100.00
56038;BME280;41907;47.848;9.000;2024-01-07T00:22:27;95043.00;;;2.58;100.00
56038;BME280;41907;47.848;9.000;2024-01-07T00:24:52;95039.56;;;2.57;100.00
56038;BME280;41907;47.848;9.000;2024-01-07T00:27:17;95043.44;;;2.70;100.00
56038;BME280;41907;47.848;9.000;2024-01-07T00:29:43;95041.53;;;2.76;100.00
56038;BME280;41907;47.848;9.000;2024-01-07T00:32:08;95041.78;;;2.79;100.00
56038;BME280;41907;47.848;9.000;2024-01-07T00:34:33;95038.72;;;2.67;100.00
56038;BME280;41907;47.848;9.000;2024-01-07T00:36:59;95036.66;;;2.59;100.00
56038;BME280;41907;47.848;9.000;2024-01-07T00:39:24;95042.53;;;2.51;100.00
56038;BME280;41907;47.848;9.000;2024-01-07T00:41:49;95034.50;;;2.66;100.00
56038;BME280;41907;47.848;9.000;2024-01-07T00:44:15;95040.16;;;2.49;100.00
56038;BME280;41907;47.848;9.000;2024-01-07T00:46:40;95038.75;;;2.62;100.00
56038;BME280;41907;47.848;9.000;2024-01-07T00:49:05;95036.34;;;2.66;100.00
56038;BME280;41907;47.848;9.000;2024-01-07T00:51:31;95031.06;;;2.71;100.00
56038;BME280;41907;47.848;9.000;2024-01-07T00:53:56;95037.47;;;2.59;100.00
56038;BME280;41907;47.848;9.000;2024-01-07T00:56:21;95030.72;;;2.43;100.00
56038;BME280;41907;47.848;9.000;2024-01-07T00:58:50;95028.63;;;2.45;100.00
56038;BME280;41907;47.848;9.000;2024-01-07T01:01:15;95031.78;;;2.42;100.00
56038;BME280;41907;47.848;9.000;2024-01-07T01:03:40;95035.22;;;2.43;100.00
56038;BME280;41907;47.848;9.000;2024-01-07T01:06:06;95032.50;;;2.53;100.00
56038;BME280;41907;47.848;9.000;2024-01-07T01:08:31;95041.19;;;2.53;100.00
56038;BME280;41907;47.848;9.000;2024-01-07T01:10:57;95042.44;;;2.61;100.00
56038;BME280;41907;47.848;9.000;2024-01-07T01:13:22;95035.56;;;2.65;100.00
56038;BME280;41907;47.848;9.000;2024-01-07T01:15:47;95041.41;;;2.62;100.00
56038;BME280;41907;47.848;9.000;2024-01-07T01:18:12;95042.28;;;2.47;100.00
56038;BME280;41907;47.848;9.000;2024-01-07T01:20:38;95044.31;;;2.60;100.00
56038;BME280;41907;47.848;9.000;2024-01-07T01:23:03;95044.50;;;2.69;100.00
56038;BME280;41907;47.848;9.000;2024-01-07T01:25:29;95036.84;;;2.73;100.00
56038;BME280;41907;47.848;9.000;2024-01-07T01:27:55;95048.94;;;2.74;100.00
56038;BME280;41907;47.848;9.000;2024-01-07T01:30:20;95048.16;;;2.73;100.00
56038;BME280;41907;47.848;9.000;2024-01-07T01:32:46;95053.13;;;2.75;100.00
56038;BME280;41907;47.848;9.000;2024-01-07T01:35:11;95046.59;;;2.72;100.00
56038;BME280;41907;47.848;9.000;2024-01-07T01:37:37;95050.00;;;2.73;100.00
56038;BME280;41907;47.848;9.000;2024-01-07T01:40:03;95050.28;;;2.71;100.00
56038;BME280;41907;47.848;9.000;2024-01-07T01:42:29;95047.72;;;2.61;100.00
56038;BME280;41907;47.848;9.000;2024-01-07T01:44:54;95046.41;;;2.58;100.00
56038;BME280;41907;47.848;9.000;2024-01-07T01:47:24;95050.38;;;2.56;100.00
56038;BME280;41907;47.848;9.000;2024-01-07T01:49:50;95045.22;;;2.41;100.00
56038;BME280;41907;47.848;9.000;2024-01-07T01:52:15;95047.00;;;2.50;100.00
56038;BME280;41907;47.848;9.000;2024-01-07T01:54:40;95046.94;;;2.55;100.00
56038;BME280;41907;47.848;9.000;2024-01-07T01:57:08;95047.41;;;2.68;100.00
56038;BME280;41907;47.848;9.000;2024-01-07T01:59:34;95044.44;;;2.74;100.00
56038;BME280;41907;47.848;9.000;2024-01-07T02:02:01;95046.28;;;2.74;100.00
56038;BME280;41907;47.848;9.000;2024-01-07T02:04:26;95043.97;;;2.67;100.00
56038;BME280;41907;47.848;9.000;2024-01-07T02:06:52;95042.13;;;2.73;100.00
56038;BME280;41907;47.848;9.000;2024-01-07T02:09:18;95049.28;;;2.62;100.00
56038;BME280;41907;47.848;9.000;2024-01-07T02:11:43;95046.09;;;2.65;100.00
56038;BME280;41907;47.848;9.000;2024-01-07T02:14:08;95040.81;;;2.65;100.00
56038;BME280;41907;47.848;9.000;2024-01-07T02:16:34;95047.19;;;2.59;100.00
56038;BME280;41907;47.848;9.000;2024-01-07T02:18:59;95049.56;;;2.60;100.00
56038;BME280;41907;47.848;9.000;2024-01-07T02:21:24;95049.38;;;2.47;100.00
56038;BME280;41907;47.848;9.000;2024-01-07T02:23:50;95047.03;;;2.45;100.00
56038;BME280;41907;47.848;9.000;2024-01-07T02:26:15;95052.31;;;2.45;100.00
56038;BME280;41907;47.848;9.000;2024-01-07T02:28:41;95045.66;;;2.53;100.00
56038;BME280;41907;47.848;9.000;2024-01-07T02:31:06;95051.09;;;2.67;100.00
56038;BME280;41907;47.848;9.000;2024-01-07T02:33:32;95057.06;;;2.77;100.00
56038;BME280;41907;47.848;9.000;2024-01-07T02:35:57;95049.16;;;2.82;100.00
56038;BME280;41907;47.848;9.000;2024-01-07T02:38:23;95055.44;;;2.86;100.00
56038;BME280;41907;47.848;9.000;2024-01-07T02:40:48;95049.63;;;2.89;100.00
56038;BME280;41907;47.848;9.000;2024-01-07T02:43:13;95054.84;;;2.94;100.00
56038;BME280;41907;47.848;9.000;2024-01-07T02:45:39;95044.09;;;2.91;100.00
56038;BME280;41907;47.848;9.000;2024-01-07T02:48:04;95046.19;;;2.89;100.00
56038;BME280;41907;47.848;9.000;2024-01-07T02:50:30;95044.69;;;2.83;100.00
56038;BME280;41907;47.848;9.000;2024-01-07T02:52:55;95049.66;;;2.84;100.00
56038;BME280;41907;47.848;9.000;2024-01-07T02:55:20;95045.25;;;2.75;100.00
56038;BME280;41907;47.848;9.000;2024-01-07T02:57:46;95050.22;;;2.81;100.00
56038;BME280;41907;47.848;9.000;2024-01-07T03:00:11;95046.75;;;2.86;100.00
56038;BME280;41907;47.848;9.000;2024-01-07T03:02:37;95039.09;;;2.89;100.00
56038;BME280;41907;47.848;9.000;2024-01-07T03:05:03;95042.19;;;2.96;100.00
56038;BME280;41907;47.848;9.000;2024-01-07T03:07:28;95042.50;;;2.90;100.00
56038;BME280;41907;47.848;9.000;2024-01-07T03:09:53;95043.56;;;2.89;100.00
56038;BME280;41907;47.848;9.000;2024-01-07T03:12:19;95043.84;;;2.87;100.00
56038;BME280;41907;47.848;9.000;2024-01-07T03:14:44;95053.25;;;2.93;100.00
56038;BME280;41907;47.848;9.000;2024-01-07T03:17:10;95047.78;;;2.90;100.00
56038;BME280;41907;47.848;9.000;2024-01-07T03:19:37;95041.19;;;2.87;100.00
56038;BME280;41907;47.848;9.000;2024-01-07T03:22:03;95051.19;;;2.90;100.00
56038;BME280;41907;47.848;9.000;2024-01-07T03:24:28;95055.09;;;2.93;100.00
56038;BME280;41907;47.848;9.000;2024-01-07T03:26:54;95051.72;;;2.92;100.00
56038;BME280;41907;47.848;9.000;2024-01-07T03:29:19;95047.72;;;2.95;100.00
56038;BME280;41907;47.848;9.000;2024-01-07T03:31:44;95053.78;;;2.95;100.00
56038;BME280;41907;47.848;9.000;2024-01-07T03:34:10;95051.94;;;2.96;100.00
56038;BME280;41907;47.848;9.000;2024-01-07T03:36:35;95053.00;;;2.95;100.00
56038;BME280;41907;47.848;9.000;2024-01-07T03:39:00;95052.72;;;2.96;100.00
56038;BME280;41907;47.848;9.000;2024-01-07T03:41:26;95042.97;;;2.97;100.00
56038;BME280;41907;47.848;9.000;2024-01-07T03:43:51;95054.28;;;2.97;100.00
56038;BME280;41907;47.848;9.000;2024-01-07T03:46:19;95055.09;;;2.98;100.00
56038;BME280;41907;47.848;9.000;2024-01-07T03:48:44;95058.22;;;3.00;100.00
56038;BME280;41907;47.848;9.000;2024-01-07T03:51:10;95057.44;;;2.99;100.00
56038;BME280;41907;47.848;9.000;2024-01-07T03:53:36;95058.53;;;2.93;100.00
56038;BME280;41907;47.848;9.000;2024-01-07T03:56:01;95057.25;;;2.91;100.00
56038;BME280;41907;47.848;9.000;2024-01-07T03:58:26;95060.09;;;2.94;100.00
56038;BME280;41907;47.848;9.000;2024-01-07T04:00:52;95058.50;;;2.98;100.00
56038;BME280;41907;47.848;9.000;2024-01-07T04:03:17;95051.13;;;3.01;100.00
56038;BME280;41907;47.848;9.000;2024-01-07T04:05:42;95054.53;;;3.01;100.00
56038;BME280;41907;47.848;9.000;2024-01-07T04:08:10;95056.66;;;2.99;100.00
56038;BME280;41907;47.848;9.000;2024-01-07T04:10:36;95050.06;;;3.02;100.00
56038;BME280;41907;47.848;9.000;2024-01-07T04:13:01;95053.75;;;3.01;100.00
56038;BME280;41907;47.848;9.000;2024-01-07T04:15:27;95056.66;;;2.99;100.00
56038;BME280;41907;47.848;9.000;2024-01-07T04:17:52;95059.56;;;2.97;100.00
56038;BME280;41907;47.848;9.000;2024-01-07T04:20:17;95055.88;;;2.93;100.00
56038;BME280;41907;47.848;9.000;2024-01-07T04:22:43;95053.50;;;2.97;100.00
56038;BME280;41907;47.848;9.000;2024-01-07T04:25:08;95051.16;;;2.95;100.00
56038;BME280;41907;47.848;9.000;2024-01-07T04:27:35;95059.31;;;2.94;100.00
56038;BME280;41907;47.848;9.000;2024-01-07T04:30:00;95066.72;;;2.92;100.00
56038;BME280;41907;47.848;9.000;2024-01-07T04:32:26;95067.22;;;2.94;100.00
56038;BME280;41907;47.848;9.000;2024-01-07T04:34:51;95064.63;;;2.89;100.00
56038;BME280;41907;47.848;9.000;2024-01-07T04:37:17;95061.47;;;2.87;100.00
56038;BME280;41907;47.848;9.000;2024-01-07T04:39:42;95060.94;;;2.90;100.00
56038;BME280;41907;47.848;9.000;2024-01-07T04:42:07;95060.69;;;2.91;100.00
56038;BME280;41907;47.848;9.000;2024-01-07T04:44:33;95066.44;;;2.93;100.00
56038;BME280;41907;47.848;9.000;2024-01-07T04:46:58;95062.25;;;2.92;100.00
56038;BME280;41907;47.848;9.000;2024-01-07T04:49:23;95070.91;;;2.93;100.00
56038;BME280;41907;47.848;9.000;2024-01-07T04:51:49;95065.63;;;2.93;100.00
56038;BME280;41907;47.848;9.000;2024-01-07T04:54:14;95066.75;;;2.87;100.00
56038;BME280;41907;47.848;9.000;2024-01-07T04:56:39;95065.94;;;2.91;100.00
56038;BME280;41907;47.848;9.000;2024-01-07T04:59:05;95068.06;;;2.89;100.00
56038;BME280;41907;47.848;9.000;2024-01-07T05:01:32;95065.41;;;2.89;100.00
56038;BME280;41907;47.848;9.000;2024-01-07T05:03:58;95065.16;;;2.86;100.00
56038;BME280;41907;47.848;9.000;2024-01-07T05:06:23;95065.41;;;2.89;100.00
56038;BME280;41907;47.848;9.000;2024-01-07T05:08:48;95067.00;;;2.90;100.00
56038;BME280;41907;47.848;9.000;2024-01-07T05:11:13;95073.06;;;2.86;100.00
56038;BME280;41907;47.848;9.000;2024-01-07T05:13:39;95065.69;;;2.88;100.00
56038;BME280;41907;47.848;9.000;2024-01-07T05:16:04;95080.44;;;2.89;100.00
56038;BME280;41907;47.848;9.000;2024-01-07T05:18:30;95082.63;;;2.77;100.00
56038;BME280;41907;47.848;9.000;2024-01-07T05:20:55;95080.78;;;2.77;100.00
56038;BME280;41907;47.848;9.000;2024-01-07T05:23:20;95076.53;;;2.81;100.00
56038;BME280;41907;47.848;9.000;2024-01-07T05:25:46;95084.19;;;2.83;100.00
56038;BME280;41907;47.848;9.000;2024-01-07T05:28:11;95082.59;;;2.82;100.00
56038;BME280;41907;47.848;9.000;2024-01-07T05:30:38;95084.19;;;2.83;100.00
56038;BME280;41907;47.848;9.000;2024-01-07T05:33:04;95085.19;;;2.87;100.00
56038;BME280;41907;47.848;9.000;2024-01-07T05:35:29;95086.25;;;2.86;100.00
56038;BME280;41907;47.848;9.000;2024-01-07T05:37:55;95085.97;;;2.87;100.00
56038;BME280;41907;47.848;9.000;2024-01-07T05:40:21;95093.09;;;2.87;100.00
56038;BME280;41907;47.848;9.000;2024-01-07T05:42:46;95092.56;;;2.85;100.00
56038;BME280;41907;47.848;9.000;2024-01-07T05:45:12;95093.34;;;2.85;100.00
56038;BME280;41907;47.848;9.000;2024-01-07T05:47:37;95089.41;;;2.88;100.00
56038;BME280;41907;47.848;9.000;2024-01-07T05:50:02;95107.28;;;2.91;100.00
56038;BME280;41907;47.848;9.000;2024-01-07T05:52:28;95106.22;;;2.92;100.00
56038;BME280;41907;47.848;9.000;2024-01-07T05:54:53;95106.44;;;2.95;100.00
56038;BME280;41907;47.848;9.000;2024-01-07T05:57:19;95100.66;;;2.93;100.00
56038;BME280;41907;47.848;9.000;2024-01-07T05:59:45;95102.25;;;2.94;100.00
56038;BME280;41907;47.848;9.000;2024-01-07T06:02:10;95105.66;;;2.95;100.00
56038;BME280;41907;47.848;9.000;2024-01-07T06:04:39;95108.03;;;2.96;100.00
56038;BME280;41907;47.848;9.000;2024-01-07T06:07:04;95104.34;;;2.97;100.00
56038;BME280;41907;47.848;9.000;2024-01-07T06:09:29;95114.59;;;2.99;100.00
56038;BME280;41907;47.848;9.000;2024-01-07T06:11:55;95112.63;;;2.81;100.00
56038;BME280;41907;47.848;9.000;2024-01-07T06:14:22;95117.81;;;2.91;100.00
56038;BME280;41907;47.848;9.000;2024-01-07T06:16:47;95118.84;;;2.95;100.00
56038;BME280;41907;47.848;9.000;2024-01-07T06:19:12;95125.69;;;2.96;100.00
56038;BME280;41907;47.848;9.000;2024-01-07T06:21:39;95118.84;;;2.95;100.00
56038;BME280;41907;47.848;9.000;2024-01-07T06:24:07;95122.00;;;2.97;100.00
56038;BME280;41907;47.848;9.000;2024-01-07T06:26:32;95119.91;;;2.94;100.00
56038;BME280;41907;47.848;9.000;2024-01-07T06:28:57;95129.63;;;2.93;100.00
56038;BME280;41907;47.848;9.000;2024-01-07T06:31:23;95129.69;;;2.88;100.00
56038;BME280;41907;47.848;9.000;2024-01-07T06:33:49;95139.69;;;2.86;100.00
56038;BME280;41907;47.848;9.000;2024-01-07T06:36:14;95127.56;;;2.90;100.00
56038;BME280;41907;47.848;9.000;2024-01-07T06:38:39;95133.84;;;2.94;100.00
56038;BME280;41907;47.848;9.000;2024-01-07T06:41:04;95130.16;;;2.95;100.00
56038;BME280;41907;47.848;9.000;2024-01-07T06:43:30;95139.38;;;2.93;100.00
56038;BME280;41907;47.848;9.000;2024-01-07T06:45:57;95149.69;;;2.89;100.00
56038;BME280;41907;47.848;9.000;2024-01-07T06:48:22;95144.66;;;2.93;100.00
56038;BME280;41907;47.848;9.000;2024-01-07T06:50:47;95148.06;;;2.98;100.00
56038;BME280;41907;47.848;9.000;2024-01-07T06:53:13;95147.53;;;2.96;100.00
56038;BME280;41907;47.848;9.000;2024-01-07T06:55:39;95149.13;;;2.97;100.00
56038;BME280;41907;47.848;9.000;2024-01-07T06:58:04;95148.34;;;2.97;100.00
56038;BME280;41907;47.848;9.000;2024-01-07T07:00:30;95154.66;;;2.96;100.00
56038;BME280;41907;47.848;9.000;2024-01-07T07:02:55;95156.22;;;2.97;100.00
56038;BME280;41907;47.848;9.000;2024-01-07T07:05:21;95152.56;;;2.93;100.00
56038;BME280;41907;47.848;9.000;2024-01-07T07:07:46;95157.59;;;2.89;100.00
56038;BME280;41907;47.848;9.000;2024-01-07T07:10:11;95161.78;;;2.95;100.00
56038;BME280;41907;47.848;9.000;2024-01-07T07:12:37;95159.69;;;2.92;100.00
56038;BME280;41907;47.848;9.000;2024-01-07T07:15:02;95154.13;;;2.94;100.00
56038;BME280;41907;47.848;9.000;2024-01-07T07:17:27;95159.13;;;3.01;100.00
56038;BME280;41907;47.848;9.000;2024-01-07T07:19:53;95160.97;;;2.95;100.00
56038;BME280;41907;47.848;9.000;2024-01-07T07:22:18;95164.41;;;2.95;100.00
56038;BME280;41907;47.848;9.000;2024-01-07T07:24:44;95165.72;;;2.93;100.00
56038;BME280;41907;47.848;9.000;2024-01-07T07:27:09;95171.31;;;2.86;100.00
56038;BME280;41907;47.848;9.000;2024-01-07T07:29:34;95168.44;;;2.83;100.00
56038;BME280;41907;47.848;9.000;2024-01-07T07:32:00;95175.78;;;2.91;100.00
56038;BME280;41907;47.848;9.000;2024-01-07T07:34:26;95180.50;;;2.89;100.00
56038;BME280;41907;47.848;9.000;2024-01-07T07:36:51;95181.94;;;2.71;100.00
56038;BME280;41907;47.848;9.000;2024-01-07T07:39:16;95177.97;;;2.69;100.00
56038;BME280;41907;47.848;9.000;2024-01-07T07:41:42;95173.25;;;2.71;100.00
56038;BME280;41907;47.848;9.000;2024-01-07T07:44:07;95186.63;;;2.74;100.00
56038;BME280;41907;47.848;9.000;2024-01-07T07:46:33;95195.34;;;2.70;100.00
56038;BME280;41907;47.848;9.000;2024-01-07T07:48:58;95190.09;;;2.65;100.00
56038;BME280;41907;47.848;9.000;2024-01-07T07:51:23;95198.00;;;2.70;100.00
56038;BME280;41907;47.848;9.000;2024-01-07T07:53:49;95192.50;;;2.56;100.00
56038;BME280;41907;47.848;9.000;2024-01-07T07:56:14;95197.19;;;2.69;100.00
56038;BME280;41907;47.848;9.000;2024-01-07T07:58:40;95195.56;;;2.78;100.00
56038;BME280;41907;47.848;9.000;2024-01-07T08:01:05;95191.56;;;2.91;100.00
56038;BME280;41907;47.848;9.000;2024-01-07T08:03:31;95194.41;;;2.99;100.00
56038;BME280;41907;47.848;9.000;2024-01-07T08:05:57;95198.94;;;2.89;100.00
56038;BME280;41907;47.848;9.000;2024-01-07T08:08:22;95187.78;;;3.02;100.00
56038;BME280;41907;47.848;9.000;2024-01-07T08:10:47;95197.53;;;3.07;100.00
56038;BME280;41907;47.848;9.000;2024-01-07T08:13:13;95201.50;;;3.04;100.00
56038;BME280;41907;47.848;9.000;2024-01-07T08:15:39;95205.63;;;3.20;100.00
56038;BME280;41907;47.848;9.000;2024-01-07T08:18:04;95197.88;;;3.34;100.00
56038;BME280;41907;47.848;9.000;2024-01-07T08:20:30;95199.00;;;3.23;100.00
56038;BME280;41907;47.848;9.000;2024-01-07T08:22:55;95205.84;;;3.24;100.00
56038;BME280;41907;47.848;9.000;2024-01-07T08:25:21;95211.53;;;2.97;100.00
56038;BME280;41907;47.848;9.000;2024-01-07T08:27:47;95210.75;;;2.96;100.00
56038;BME280;41907;47.848;9.000;2024-01-07T08:30:13;95206.81;;;2.94;100.00
56038;BME280;41907;47.848;9.000;2024-01-07T08:32:39;95208.13;;;2.96;100.00
56038;BME280;41907;47.848;9.000;2024-01-07T08:35:05;95205.69;;;3.05;100.00
56038;BME280;41907;47.848;9.000;2024-01-07T08:37:30;95210.59;;;3.22;100.00
56038;BME280;41907;47.848;9.000;2024-01-07T08:39:56;95200.94;;;3.07;100.00
56038;BME280;41907;47.848;9.000;2024-01-07T08:42:21;95207.22;;;3.16;100.00
56038;BME280;41907;47.848;9.000;2024-01-07T08:44:47;95214.41;;;3.45;100.00
56038;BME280;41907;47.848;9.000;2024-01-07T08:47:12;95207.84;;;3.42;100.00
56038;BME280;41907;47.848;9.000;2024-01-07T08:49:38;95213.75;;;3.63;100.00
56038;BME280;41907;47.848;9.000;2024-01-07T08:52:04;95208.88;;;3.46;100.00
56038;BME280;41907;47.848;9.000;2024-01-07T08:54:29;95215.72;;;3.47;100.00
56038;BME280;41907;47.848;9.000;2024-01-07T08:56:55;95219.88;;;3.53;100.00
56038;BME280;41907;47.848;9.000;2024-01-07T08:59:20;95225.41;;;3.52;100.00
56038;BME280;41907;47.848;9.000;2024-01-07T09:01:45;95227.53;;;3.55;100.00
56038;BME280;41907;47.848;9.000;2024-01-07T09:04:11;95226.00;;;3.49;100.00
56038;BME280;41907;47.848;9.000;2024-01-07T09:06:37;95237.22;;;3.59;100.00
56038;BME280;41907;47.848;9.000;2024-01-07T09:09:02;95233.03;;;3.58;100.00
56038;BME280;41907;47.848;9.000;2024-01-07T09:11:31;95237.22;;;3.59;100.00
56038;BME280;41907;47.848;9.000;2024-01-07T09:13:56;95239.31;;;3.62;100.00
56038;BME280;41907;47.848;9.000;2024-01-07T09:16:22;95235.22;;;3.46;100.00
56038;BME280;41907;47.848;9.000;2024-01-07T09:18:47;95243.06;;;3.56;100.00
56038;BME280;41907;47.848;9.000;2024-01-07T09:21:12;95240.16;;;3.58;100.00
56038;BME280;41907;47.848;9.000;2024-01-07T09:23:39;95245.44;;;3.58;100.00
56038;BME280;41907;47.848;9.000;2024-01-07T09:26:04;95241.81;;;3.44;100.00
56038;BME280;41907;47.848;9.000;2024-01-07T09:28:30;95245.47;;;3.53;100.00
56038;BME280;41907;47.848;9.000;2024-01-07T09:30:55;95245.50;;;3.48;100.00
56038;BME280;41907;47.848;9.000;2024-01-07T09:33:20;95247.38;;;3.42;100.00
56038;BME280;41907;47.848;9.000;2024-01-07T09:35:49;95251.97;;;3.26;100.00
56038;BME280;41907;47.848;9.000;2024-01-07T09:38:14;95249.53;;;3.35;100.00
56038;BME280;41907;47.848;9.000;2024-01-07T09:40:40;95250.84;;;3.38;100.00
56038;BME280;41907;47.848;9.000;2024-01-07T09:43:05;95252.56;;;3.52;100.00
56038;BME280;41907;47.848;9.000;2024-01-07T09:45:31;95259.03;;;3.70;100.00
56038;BME280;41907;47.848;9.000;2024-01-07T09:47:56;95254.47;;;3.81;100.00
56038;BME280;41907;47.848;9.000;2024-01-07T09:50:22;95257.34;;;3.84;100.00
56038;BME280;41907;47.848;9.000;2024-01-07T09:52:48;95253.50;;;3.71;100.00
56038;BME280;41907;47.848;9.000;2024-01-07T09:55:24;95262.25;;;3.67;100.00
56038;BME280;41907;47.848;9.000;2024-01-07T09:57:52;95257.03;;;3.57;100.00
56038;BME280;41907;47.848;9.000;2024-01-07T10:00:17;95256.91;;;3.77;100.00
56038;BME280;41907;47.848;9.000;2024-01-07T10:02:43;95255.84;;;3.73;100.00
56038;BME280;41907;47.848;9.000;2024-01-07T10:05:09;95255.94;;;3.63;100.00
56038;BME280;41907;47.848;9.000;2024-01-07T10:07:34;95259.09;;;3.60;100.00
56038;BME280;41907;47.848;9.000;2024-01-07T10:10:20;95252.56;;;3.52;100.00
56038;BME280;41907;47.848;9.000;2024-01-07T10:12:46;95252.84;;;3.51;100.00
56038;BME280;41907;47.848;9.000;2024-01-07T10:15:12;95255.91;;;3.68;100.00
56038;BME280;41907;47.848;9.000;2024-01-07T10:17:37;95253.28;;;3.68;100.00
56038;BME280;41907;47.848;9.000;2024-01-07T10:20:05;95247.78;;;3.59;100.00
56038;BME280;41907;47.848;9.000;2024-01-07T10:22:34;95254.81;;;3.74;100.00
56038;BME280;41907;47.848;9.000;2024-01-07T10:24:59;95255.72;;;3.88;100.00
56038;BME280;41907;47.848;9.000;2024-01-07T10:27:25;95256.06;;;3.82;100.00
56038;BME280;41907;47.848;9.000;2024-01-07T10:29:50;95251.66;;;4.01;100.00
56038;BME280;41907;47.848;9.000;2024-01-07T10:32:19;95259.22;;;4.13;100.00
56038;BME280;41907;47.848;9.000;2024-01-07T10:34:46;95252.19;;;3.69;100.00
56038;BME280;41907;47.848;9.000;2024-01-07T10:37:14;95252.94;;;3.74;100.00
56038;BME280;41907;47.848;9.000;2024-01-07T10:39:39;95255.06;;;3.72;100.00
56038;BME280;41907;47.848;9.000;2024-01-07T10:42:06;95252.09;;;3.79;100.00
56038;BME280;41907;47.848;9.000;2024-01-07T10:44:32;95258.41;;;3.83;100.00
56038;BME280;41907;47.848;9.000;2024-01-07T10:46:58;95254.28;;;3.72;100.00
56038;BME280;41907;47.848;9.000;2024-01-07T10:49:27;95248.66;;;3.84;100.00
56038;BME280;41907;47.848;9.000;2024-01-07T10:52:03;95254.66;;;3.89;100.00
56038;BME280;41907;47.848;9.000;2024-01-07T10:54:34;95252.34;;;3.83;100.00
56038;BME280;41907;47.848;9.000;2024-01-07T10:57:27;95252.31;;;3.88;100.00
56038;BME280;41907;47.848;9.000;2024-01-07T10:59:59;95257.75;;;3.96;100.00
56038;BME280;41907;47.848;9.000;2024-01-07T11:02:25;95253.25;;;4.02;100.00
56038;BME280;41907;47.848;9.000;2024-01-07T11:05:05;95255.34;;;4.05;100.00
56038;BME280;41907;47.848;9.000;2024-01-07T11:07:40;95250.25;;;3.80;100.00
56038;BME280;41907;47.848;9.000;2024-01-07T11:13:04;95257.56;;;3.93;100.00
56038;BME280;41907;47.848;9.000;2024-01-07T11:18:18;95247.28;;;3.91;100.00
56038;BME280;41907;47.848;9.000;2024-01-07T11:20:45;95249.38;;;3.94;100.00
56038;BME280;41907;47.848;9.000;2024-01-07T11:23:31;95251.56;;;3.82;100.00
56038;BME280;41907;47.848;9.000;2024-01-07T11:26:01;95244.78;;;3.71;100.00
56038;BME280;41907;47.848;9.000;2024-01-07T11:31:15;95250.41;;;3.59;100.00
56038;BME280;41907;47.848;9.000;2024-01-07T11:33:45;95252.25;;;3.64;100.00
56038;BME280;41907;47.848;9.000;2024-01-07T11:36:12;95244.53;;;3.72;100.00
56038;BME280;41907;47.848;9.000;2024-01-07T11:38:42;95248.31;;;3.90;100.00
56038;BME280;41907;47.848;9.000;2024-01-07T11:41:09;95246.09;;;3.73;100.00
56038;BME280;41907;47.848;9.000;2024-01-07T11:43:36;95252.56;;;3.52;100.00
56038;BME280;41907;47.848;9.000;2024-01-07T11:46:01;95250.59;;;3.73;100.00
56038;BME280;41907;47.848;9.000;2024-01-07T11:48:26;95247.34;;;3.81;100.00
56038;BME280;41907;47.848;9.000;2024-01-07T11:50:52;95249.59;;;3.64;100.00
56038;BME280;41907;47.848;9.000;2024-01-07T11:53:18;95249.47;;;3.79;100.00
56038;BME280;41907;47.848;9.000;2024-01-07T11:55:44;95248.88;;;3.87;100.00
56038;BME280;41907;47.848;9.000;2024-01-07T11:58:09;95248.97;;;3.77;100.00
56038;BME280;41907;47.848;9.000;2024-01-07T12:00:35;95246.38;;;3.72;100.00
56038;BME280;41907;47.848;9.000;2024-01-07T12:03:01;95242.13;;;3.76;100.00
56038;BME280;41907;47.848;9.000;2024-01-07T12:05:27;95248.06;;;3.58;100.00
56038;BME280;41907;47.848;9.000;2024-01-07T12:07:53;95251.03;;;3.46;100.00
56038;BME280;41907;47.848;9.000;2024-01-07T12:10:18;95250.25;;;3.46;100.00
56038;BME280;41907;47.848;9.000;2024-01-07T12:12:44;95255.84;;;3.39;100.00
56038;BME280;41907;47.848;9.000;2024-01-07T12:15:10;95253.47;;;3.38;100.00
56038;BME280;41907;47.848;9.000;2024-01-07T12:17:38;95260.41;;;3.23;100.00
56038;BME280;41907;47.848;9.000;2024-01-07T12:20:04;95262.38;;;3.47;100.00
56038;BME280;41907;47.848;9.000;2024-01-07T12:22:30;95260.56;;;3.42;100.00
56038;BME280;41907;47.848;9.000;2024-01-07T12:25:02;95266.72;;;3.27;100.00
56038;BME280;41907;47.848;9.000;2024-01-07T12:27:28;95257.06;;;3.08;100.00
56038;BME280;41907;47.848;9.000;2024-01-07T12:29:55;95257.88;;;3.03;100.00
56038;BME280;41907;47.848;9.000;2024-01-07T12:32:21;95264.75;;;2.99;100.00
56038;BME280;41907;47.848;9.000;2024-01-07T12:34:48;95259.44;;;3.04;100.00
56038;BME280;41907;47.848;9.000;2024-01-07T12:37:13;95260.50;;;3.08;100.00
56038;BME280;41907;47.848;9.000;2024-01-07T12:39:40;95258.91;;;3.02;100.00
56038;BME280;41907;47.848;9.000;2024-01-07T12:42:05;95262.34;;;3.03;100.00
56038;BME280;41907;47.848;9.000;2024-01-07T12:44:32;95266.06;;;2.96;100.00
56038;BME280;41907;47.848;9.000;2024-01-07T12:46:58;95262.13;;;2.94;100.00
56038;BME280;41907;47.848;9.000;2024-01-07T12:49:23;95260.22;;;3.05;100.00
56038;BME280;41907;47.848;9.000;2024-01-07T12:51:48;95268.03;;;3.25;100.00
56038;BME280;41907;47.848;9.000;2024-01-07T12:54:14;95264.44;;;3.11;100.00
56038;BME280;41907;47.848;9.000;2024-01-07T12:56:39;95259.19;;;3.06;100.00
56038;BME280;41907;47.848;9.000;2024-01-07T12:59:04;95267.34;;;3.09;100.00
56038;BME280;41907;47.848;9.000;2024-01-07T13:01:30;95269.72;;;3.11;100.00